createdAt,value
2018-12-27T00:01:06.673Z,7.63
2018-12-27T00:03:33.285Z,6.97
2018-12-27T00:05:59.896Z,7.87
2018-12-27T00:08:26.475Z,7.70
2018-12-27T00:10:52.714Z,7.90
2018-12-27T00:13:19.209Z,7.47
2018-12-27T00:15:45.842Z,6.93
2018-12-27T00:18:12.070Z,6.77
2018-12-27T00:20:38.689Z,7.57
2018-12-27T00:23:05.289Z,9.43
2018-12-27T00:25:31.822Z,9.63
2018-12-27T00:27:58.410Z,8.40
2018-12-27T00:30:25.030Z,10.63
2018-12-27T00:32:51.241Z,7.83
2018-12-27T00:35:17.503Z,8.30
2018-12-27T00:37:44.093Z,7.10
2018-12-27T00:40:10.692Z,7.47
2018-12-27T00:42:36.942Z,6.93
2018-12-27T00:45:05.079Z,7.40
2018-12-27T00:47:31.677Z,8.17
2018-12-27T00:49:58.430Z,8.70
2018-12-27T00:52:25.077Z,10.17
2018-12-27T00:54:51.314Z,7.97
2018-12-27T00:57:17.806Z,7.80
2018-12-27T00:59:44.034Z,8.90
2018-12-27T01:02:10.930Z,6.27
2018-12-27T01:04:37.172Z,8.23
2018-12-27T01:07:03.780Z,8.23
2018-12-27T01:09:30.369Z,7.57
2018-12-27T01:11:56.646Z,7.27
2018-12-27T01:14:22.989Z,6.70
2018-12-27T01:16:49.612Z,9.20
2018-12-27T01:19:15.859Z,7.50
2018-12-27T01:21:42.517Z,7.90
2018-12-27T01:24:09.072Z,6.33
2018-12-27T01:26:35.680Z,6.90
2018-12-27T01:29:01.928Z,5.27
2018-12-27T01:31:28.191Z,8.47
2018-12-27T01:33:54.422Z,6.57
2018-12-27T01:36:20.647Z,5.97
2018-12-27T01:38:47.268Z,7.50
2018-12-27T01:41:13.853Z,7.57
2018-12-27T01:43:40.108Z,7.17
2018-12-27T01:46:06.337Z,6.77
2018-12-27T01:48:32.610Z,7.37
2018-12-27T01:50:59.230Z,6.93
2018-12-27T01:53:25.874Z,6.70
2018-12-27T01:55:52.150Z,7.03
2018-12-27T01:58:18.770Z,7.10
2018-12-27T02:00:45.009Z,7.43
2018-12-27T02:03:11.825Z,6.50
2018-12-27T02:05:38.411Z,8.57
2018-12-27T02:08:04.680Z,7.70
2018-12-27T02:10:31.269Z,7.30
2018-12-27T02:12:57.890Z,6.67
2018-12-27T02:15:24.118Z,8.37
2018-12-27T02:17:50.750Z,11.53
2018-12-27T02:20:16.974Z,8.27
2018-12-27T02:22:43.233Z,7.57
2018-12-27T02:25:10.614Z,7.77
2018-12-27T02:27:36.878Z,10.33
2018-12-27T02:30:03.460Z,9.67
2018-12-27T02:32:30.082Z,7.83
2018-12-27T02:34:56.686Z,7.57
2018-12-27T02:37:22.931Z,8.50
2018-12-27T02:39:49.554Z,8.77
2018-12-27T02:42:15.784Z,8.00
2018-12-27T02:44:42.039Z,7.50
2018-12-27T02:47:08.638Z,7.80
2018-12-27T02:49:35.274Z,7.60
2018-12-27T02:52:01.877Z,9.00
2018-12-27T02:54:28.505Z,7.23
2018-12-27T02:56:55.120Z,8.33
2018-12-27T02:59:21.379Z,7.23
2018-12-27T03:01:47.604Z,7.27
2018-12-27T03:04:14.227Z,6.73
2018-12-27T03:06:40.817Z,7.37
2018-12-27T03:09:07.076Z,7.50
2018-12-27T03:11:33.682Z,6.70
2018-12-27T03:13:59.962Z,7.27
2018-12-27T03:16:26.179Z,8.00
2018-12-27T03:18:52.798Z,6.93
2018-12-27T03:21:19.398Z,8.20
2018-12-27T03:23:46.009Z,5.67
2018-12-27T03:26:12.615Z,7.80
2018-12-27T03:28:38.874Z,8.73
2018-12-27T03:31:05.471Z,7.80
2018-12-27T03:33:32.098Z,6.63
2018-12-27T03:35:58.701Z,7.83
2018-12-27T03:38:24.927Z,7.57
2018-12-27T03:40:51.563Z,8.77
2018-12-27T03:43:18.059Z,7.83
2018-12-27T03:45:44.319Z,8.20
2018-12-27T03:48:10.910Z,7.50
2018-12-27T03:50:37.532Z,8.30
2018-12-27T03:53:04.162Z,6.53
2018-12-27T03:55:31.266Z,6.20
2018-12-27T03:57:57.861Z,7.30
2018-12-27T04:00:24.117Z,6.70
2018-12-27T04:02:50.693Z,8.97
2018-12-27T04:05:17.337Z,6.93
2018-12-27T04:07:43.924Z,6.57
2018-12-27T04:10:10.150Z,5.40
2018-12-27T04:12:36.770Z,6.47
2018-12-27T04:15:08.065Z,5.77
2018-12-27T04:17:34.778Z,7.13
2018-12-27T04:20:01.019Z,5.93
2018-12-27T04:22:27.277Z,6.53
2018-12-27T04:24:53.809Z,6.73
2018-12-27T04:27:19.978Z,5.53
2018-12-27T04:29:46.567Z,7.93
2018-12-27T04:32:13.415Z,7.07
2018-12-27T04:34:39.954Z,5.97
2018-12-27T04:37:06.377Z,5.23
2018-12-27T04:39:32.649Z,6.50
2018-12-27T04:41:59.526Z,6.90
2018-12-27T04:44:26.275Z,7.07
2018-12-27T04:46:52.520Z,4.93
2018-12-27T04:49:19.141Z,6.23
2018-12-27T04:51:45.846Z,5.70
2018-12-27T04:54:12.094Z,7.77
2018-12-27T04:56:38.730Z,5.87
2018-12-27T04:59:05.345Z,5.97
2018-12-27T05:01:31.939Z,6.57
2018-12-27T05:03:58.580Z,8.00
2018-12-27T05:06:24.798Z,4.80
2018-12-27T05:08:51.394Z,5.47
2018-12-27T05:11:18.017Z,6.60
2018-12-27T05:13:44.877Z,7.00
2018-12-27T05:16:11.134Z,5.63
2018-12-27T05:18:37.717Z,5.97
2018-12-27T05:21:03.988Z,8.60
2018-12-27T05:23:30.226Z,5.97
2018-12-27T05:25:56.864Z,5.03
2018-12-27T05:28:23.446Z,7.50
2018-12-27T05:30:50.078Z,6.27
2018-12-27T05:33:16.674Z,5.27
2018-12-27T05:35:43.294Z,6.03
2018-12-27T05:38:09.888Z,6.93
2018-12-27T05:40:36.110Z,6.93
2018-12-27T05:43:02.373Z,7.37
2018-12-27T05:45:28.971Z,6.70
2018-12-27T05:47:55.590Z,6.13
2018-12-27T05:50:22.187Z,7.47
2018-12-27T05:52:48.430Z,7.10
2018-12-27T05:55:15.054Z,8.10
2018-12-27T05:57:41.689Z,5.47
2018-12-27T06:00:08.293Z,5.80
2018-12-27T06:02:34.914Z,7.10
2018-12-27T06:05:01.147Z,6.23
2018-12-27T06:07:27.769Z,4.77
2018-12-27T06:09:54.365Z,4.30
2018-12-27T06:12:20.981Z,4.50
2018-12-27T06:14:47.566Z,4.60
2018-12-27T06:17:13.828Z,5.33
2018-12-27T06:19:40.426Z,5.10
2018-12-27T06:22:08.944Z,5.53
2018-12-27T06:24:35.189Z,4.40
2018-12-27T06:27:01.446Z,4.90
2018-12-27T06:29:28.296Z,4.87
2018-12-27T06:31:54.929Z,5.30
2018-12-27T06:34:21.493Z,5.03
2018-12-27T06:36:48.105Z,4.40
2018-12-27T06:39:14.693Z,6.03
2018-12-27T06:41:41.284Z,6.97
2018-12-27T06:44:07.533Z,4.53
2018-12-27T06:46:34.172Z,4.97
2018-12-27T06:49:00.424Z,4.03
2018-12-27T06:51:27.005Z,6.07
2018-12-27T06:53:53.885Z,5.33
2018-12-27T06:56:20.509Z,5.03
2018-12-27T06:58:47.133Z,5.03
2018-12-27T07:01:13.715Z,6.67
2018-12-27T07:03:40.333Z,6.57
2018-12-27T07:06:06.565Z,4.97
2018-12-27T07:08:33.191Z,5.87
2018-12-27T07:10:59.423Z,6.40
2018-12-27T07:13:26.145Z,5.37
2018-12-27T07:15:52.370Z,6.13
2018-12-27T07:18:18.985Z,5.73
2018-12-27T07:20:45.565Z,6.13
2018-12-27T07:23:12.188Z,4.87
2018-12-27T07:25:38.864Z,5.30
2018-12-27T07:28:05.492Z,5.63
2018-12-27T07:30:32.080Z,4.93
2018-12-27T07:32:58.366Z,4.90
2018-12-27T07:35:25.052Z,4.97
2018-12-27T07:37:51.239Z,4.80
2018-12-27T07:40:17.829Z,5.13
2018-12-27T07:42:44.462Z,6.47
2018-12-27T07:45:10.714Z,4.83
2018-12-27T07:47:36.960Z,4.63
2018-12-27T07:50:04.615Z,7.20
2018-12-27T07:52:31.128Z,4.73
2018-12-27T07:54:58.082Z,4.87
2018-12-27T07:57:24.702Z,5.33
2018-12-27T07:59:51.618Z,5.43
2018-12-27T08:02:17.841Z,6.77
2018-12-27T08:04:44.466Z,4.80
2018-12-27T08:07:11.053Z,5.60
2018-12-27T08:09:37.865Z,5.00
2018-12-27T08:12:04.461Z,5.70
2018-12-27T08:14:30.717Z,5.17
2018-12-27T08:16:57.305Z,4.93
2018-12-27T08:19:23.567Z,5.20
2018-12-27T08:21:49.801Z,5.80
2018-12-27T08:24:16.422Z,4.27
2018-12-27T08:26:43.019Z,3.23
2018-12-27T08:29:09.275Z,3.53
2018-12-27T08:31:35.874Z,4.40
2018-12-27T08:34:02.142Z,4.10
2018-12-27T08:36:28.625Z,3.70
2018-12-27T08:38:55.251Z,4.03
2018-12-27T08:41:21.841Z,4.10
2018-12-27T08:43:48.422Z,3.30
2018-12-27T08:46:14.686Z,4.57
2018-12-27T08:48:40.922Z,3.30
2018-12-27T08:51:07.561Z,3.50
2018-12-27T08:53:33.825Z,4.00
2018-12-27T08:56:00.125Z,2.83
2018-12-27T08:58:26.825Z,3.73
2018-12-27T09:00:53.066Z,5.07
2018-12-27T09:03:19.293Z,3.83
2018-12-27T09:05:45.918Z,5.03
2018-12-27T09:08:12.513Z,4.30
2018-12-27T09:10:38.774Z,3.60
2018-12-27T09:13:05.380Z,4.53
2018-12-27T09:15:32.392Z,4.10
2018-12-27T09:17:58.990Z,3.90
2018-12-27T09:20:25.618Z,4.37
2018-12-27T09:22:52.206Z,4.80
2018-12-27T09:25:20.910Z,3.90
2018-12-27T09:27:47.438Z,4.77
2018-12-27T09:30:13.710Z,4.60
2018-12-27T09:32:40.301Z,4.70
2018-12-27T09:35:06.771Z,3.60
2018-12-27T09:37:32.999Z,4.63
2018-12-27T09:39:59.261Z,4.30
2018-12-27T09:42:26.984Z,4.80
2018-12-27T09:44:53.644Z,4.77
2018-12-27T09:47:20.259Z,4.27
2018-12-27T09:49:46.477Z,3.97
2018-12-27T09:52:13.101Z,3.83
2018-12-27T09:54:39.721Z,4.67
2018-12-27T09:57:06.030Z,5.00
2018-12-27T09:59:32.258Z,4.10
2018-12-27T10:01:58.874Z,3.87
2018-12-27T10:04:25.109Z,4.00
2018-12-27T10:06:51.736Z,5.07
2018-12-27T10:09:18.325Z,8.13
2018-12-27T10:11:44.949Z,6.43
2018-12-27T10:14:11.549Z,5.83
2018-12-27T10:16:38.105Z,6.40
2018-12-27T10:19:04.689Z,6.53
2018-12-27T10:21:31.309Z,6.43
2018-12-27T10:23:57.897Z,6.13
2018-12-27T10:26:24.473Z,5.83
2018-12-27T10:28:51.174Z,4.00
2018-12-27T10:31:17.791Z,4.87
2018-12-27T10:33:44.395Z,4.87
2018-12-27T10:36:11.026Z,5.10
2018-12-27T10:38:37.253Z,15.47
2018-12-27T10:41:03.865Z,20.00
2018-12-27T10:43:30.104Z,14.37
2018-12-27T10:45:56.738Z,8.73
2018-12-27T10:48:23.320Z,7.57
2018-12-27T10:50:49.550Z,6.67
2018-12-27T10:53:16.191Z,5.53
2018-12-27T10:55:42.462Z,5.30
2018-12-27T10:58:09.066Z,5.20
2018-12-27T11:00:35.664Z,12.70
2018-12-27T11:03:02.277Z,12.30
2018-12-27T11:05:28.887Z,11.03
2018-12-27T11:07:55.409Z,7.00
2018-12-27T11:10:21.642Z,6.53
2018-12-27T11:12:48.265Z,5.87
2018-12-27T11:15:14.849Z,4.67
2018-12-27T11:17:41.097Z,5.27
2018-12-27T11:20:07.705Z,5.43
2018-12-27T11:22:33.965Z,4.43
2018-12-27T11:25:00.565Z,4.63
2018-12-27T11:27:27.182Z,3.50
2018-12-27T11:29:53.772Z,3.50
2018-12-27T11:32:20.025Z,3.63
2018-12-27T11:34:46.613Z,3.30
2018-12-27T11:37:12.873Z,3.67
2018-12-27T11:39:39.117Z,3.73
2018-12-27T11:42:05.746Z,3.03
2018-12-27T11:44:32.362Z,3.37
2018-12-27T11:46:58.975Z,3.50
2018-12-27T11:49:25.879Z,2.93
2018-12-27T11:51:52.526Z,3.27
2018-12-27T11:54:19.213Z,3.03
2018-12-27T11:56:45.471Z,3.23
2018-12-27T11:59:11.718Z,3.67
2018-12-27T12:01:37.959Z,3.20
2018-12-27T12:04:04.565Z,2.80
2018-12-27T12:06:31.166Z,3.10
2018-12-27T12:08:57.791Z,3.17
2018-12-27T12:11:24.386Z,3.73
2018-12-27T12:13:50.651Z,2.97
2018-12-27T12:16:17.237Z,4.80
2018-12-27T12:18:43.956Z,4.50
2018-12-27T12:21:10.545Z,4.97
2018-12-27T12:23:37.262Z,4.93
2018-12-27T12:26:03.849Z,7.03
2018-12-27T12:28:30.453Z,4.03
2018-12-27T12:30:56.983Z,4.13
2018-12-27T12:33:23.241Z,4.33
2018-12-27T12:35:49.825Z,4.37
2018-12-27T12:38:16.533Z,5.10
2018-12-27T12:40:42.779Z,5.03
2018-12-27T12:43:09.021Z,5.77
2018-12-27T12:45:35.813Z,5.20
2018-12-27T12:48:02.439Z,5.07
2018-12-27T12:50:28.665Z,6.30
2018-12-27T12:52:55.336Z,7.37
2018-12-27T12:55:21.589Z,5.80
2018-12-27T12:57:49.221Z,7.50
2018-12-27T13:00:15.837Z,8.13
2018-12-27T13:02:42.066Z,5.77
2018-12-27T13:05:08.325Z,8.13
2018-12-27T13:07:35.720Z,7.33
2018-12-27T13:10:02.929Z,7.53
2018-12-27T13:12:29.529Z,9.17
2018-12-27T13:14:56.145Z,8.63
2018-12-27T13:17:22.762Z,9.97
2018-12-27T13:19:49.381Z,8.60
2018-12-27T13:22:16.710Z,7.87
2018-12-27T13:24:43.325Z,9.10
2018-12-27T13:27:09.913Z,8.03
2018-12-27T13:29:36.182Z,8.80
2018-12-27T13:32:02.763Z,8.90
2018-12-27T13:34:29.038Z,7.93
2018-12-27T13:36:55.633Z,9.17
2018-12-27T13:39:21.885Z,9.47
2018-12-27T13:41:48.474Z,9.77
2018-12-27T13:44:15.091Z,7.13
2018-12-27T13:46:41.328Z,8.30
2018-12-27T13:49:07.562Z,7.47
2018-12-27T13:51:34.192Z,7.97
2018-12-27T13:54:00.458Z,7.63
2018-12-27T13:56:27.113Z,8.70
2018-12-27T13:58:53.710Z,8.30
2018-12-27T14:01:20.325Z,7.50
2018-12-27T14:03:46.563Z,8.93
2018-12-27T14:06:13.985Z,8.67
2018-12-27T14:08:42.271Z,8.57
2018-12-27T14:11:08.553Z,7.50
2018-12-27T14:13:35.254Z,8.07
2018-12-27T14:16:01.514Z,8.80
2018-12-27T14:18:28.105Z,8.63
2018-12-27T14:20:54.714Z,8.17
2018-12-27T14:23:21.327Z,8.80
2018-12-27T14:25:47.939Z,8.30
2018-12-27T14:28:14.521Z,9.70
2018-12-27T14:30:40.786Z,9.17
2018-12-27T14:33:07.377Z,8.17
2018-12-27T14:35:33.640Z,11.03
2018-12-27T14:37:59.870Z,8.87
2018-12-27T14:40:26.490Z,8.03
2018-12-27T14:42:53.079Z,7.57
2018-12-27T14:45:19.602Z,11.20
2018-12-27T14:47:46.205Z,10.07
2018-12-27T14:50:12.859Z,9.50
2018-12-27T14:52:39.686Z,9.87
2018-12-27T14:55:05.954Z,9.83
2018-12-27T14:57:32.229Z,10.30
2018-12-27T14:59:59.097Z,11.43
2018-12-27T15:02:25.719Z,10.93
2018-12-27T15:04:51.946Z,10.87
2018-12-27T15:07:18.214Z,10.47
2018-12-27T15:09:44.801Z,11.43
2018-12-27T15:12:11.413Z,9.90
2018-12-27T15:14:37.644Z,9.87
2018-12-27T15:17:04.249Z,12.17
2018-12-27T15:19:30.829Z,10.10
2018-12-27T15:21:57.441Z,9.67
2018-12-27T15:24:24.060Z,8.90
2018-12-27T15:26:50.676Z,10.50
2018-12-27T15:29:17.267Z,10.50
2018-12-27T15:31:43.883Z,9.50
2018-12-27T15:34:10.473Z,10.53
2018-12-27T15:36:37.080Z,9.87
2018-12-27T15:39:04.461Z,10.23
2018-12-27T15:41:31.093Z,8.30
2018-12-27T15:43:57.636Z,11.50
2018-12-27T15:46:23.858Z,11.07
2018-12-27T15:48:50.481Z,9.30
2018-12-27T15:51:17.269Z,8.23
2018-12-27T15:53:43.883Z,9.43
2018-12-27T15:56:10.654Z,9.13
2018-12-27T15:58:37.278Z,9.70
2018-12-27T16:01:04.138Z,9.27
2018-12-27T16:03:30.750Z,10.90
2018-12-27T16:05:57.347Z,9.37
2018-12-27T16:08:23.961Z,9.83
2018-12-27T16:10:50.198Z,11.63
2018-12-27T16:13:16.834Z,9.40
2018-12-27T16:15:43.528Z,9.27
2018-12-27T16:18:10.140Z,8.47
2018-12-27T16:20:36.719Z,10.80
2018-12-27T16:23:03.341Z,10.00
2018-12-27T16:25:29.932Z,10.03
2018-12-27T16:27:56.552Z,9.17
2018-12-27T16:30:22.778Z,9.10
2018-12-27T16:32:49.042Z,11.37
2018-12-27T16:35:15.277Z,12.13
2018-12-27T16:37:41.525Z,9.27
2018-12-27T16:40:08.118Z,10.80
2018-12-27T16:42:34.759Z,11.60
2018-12-27T16:45:01.008Z,11.67
2018-12-27T16:47:27.247Z,10.40
2018-12-27T16:49:53.873Z,10.17
2018-12-27T16:52:20.467Z,12.10
2018-12-27T16:54:47.094Z,12.70
2018-12-27T16:57:19.735Z,12.23
2018-12-27T16:59:41.801Z,11.83
2018-12-27T17:02:08.401Z,11.80
2018-12-27T17:04:35.010Z,11.53
2018-12-27T17:07:01.608Z,11.93
2018-12-27T17:09:28.213Z,11.17
2018-12-27T17:11:54.445Z,12.37
2018-12-27T17:14:20.701Z,13.43
2018-12-27T17:16:46.936Z,13.87
2018-12-27T17:19:13.597Z,15.70
2018-12-27T17:21:39.814Z,13.80
2018-12-27T17:24:06.072Z,13.00
2018-12-27T17:26:32.306Z,12.97
2018-12-27T17:28:58.914Z,17.07
2018-12-27T17:31:25.510Z,12.67
2018-12-27T17:33:52.237Z,12.23
2018-12-27T17:36:18.829Z,14.73
2018-12-27T17:38:45.090Z,12.57
2018-12-27T17:41:11.329Z,12.73
2018-12-27T17:43:37.809Z,11.77
2018-12-27T17:46:04.037Z,11.77
2018-12-27T17:48:30.265Z,12.80
2018-12-27T17:50:56.882Z,15.20
2018-12-27T17:53:23.492Z,13.77
2018-12-27T17:55:50.305Z,11.90
2018-12-27T17:58:16.926Z,13.03
2018-12-27T18:00:43.261Z,14.30
2018-12-27T18:03:09.826Z,12.20
2018-12-27T18:05:36.435Z,13.07
2018-12-27T18:08:03.289Z,13.33
2018-12-27T18:10:29.809Z,11.80
2018-12-27T18:12:56.395Z,10.60
2018-12-27T18:15:23.016Z,13.53
2018-12-27T18:17:49.609Z,13.47
2018-12-27T18:20:16.246Z,12.73
2018-12-27T18:22:42.836Z,13.00
2018-12-27T18:25:09.067Z,12.53
2018-12-27T18:27:35.665Z,14.37
2018-12-27T18:30:02.790Z,14.70
2018-12-27T18:32:29.373Z,17.77
2018-12-27T18:34:55.999Z,14.10
2018-12-27T18:37:22.599Z,15.17
2018-12-27T18:39:49.214Z,13.37
2018-12-27T18:42:15.801Z,16.47
2018-12-27T18:44:42.406Z,13.63
2018-12-27T18:47:09.021Z,13.10
2018-12-27T18:49:35.270Z,13.00
2018-12-27T18:52:01.549Z,12.77
2018-12-27T18:54:28.137Z,11.50
2018-12-27T18:56:54.773Z,12.17
2018-12-27T18:59:21.002Z,11.87
2018-12-27T19:01:47.642Z,14.60
2018-12-27T19:04:13.869Z,14.20
2018-12-27T19:06:40.091Z,12.00
2018-12-27T19:09:06.365Z,11.10
2018-12-27T19:12:09.901Z,13.00
2018-12-27T19:14:36.501Z,14.00
2018-12-27T19:17:03.117Z,15.40
2018-12-27T19:19:29.685Z,11.83
2018-12-27T19:21:55.949Z,13.97
2018-12-27T19:24:22.170Z,13.13
2018-12-27T19:26:48.434Z,13.17
2018-12-27T19:29:15.020Z,12.50
2018-12-27T19:31:41.641Z,13.60
2018-12-27T19:34:10.130Z,15.47
2018-12-27T19:36:36.744Z,13.87
2018-12-27T19:39:04.496Z,12.17
2018-12-27T19:41:31.052Z,12.40
2018-12-27T19:43:57.279Z,13.43
2018-12-27T19:46:23.897Z,13.00
2018-12-27T19:48:50.484Z,16.90
2018-12-27T19:51:16.762Z,15.23
2018-12-27T19:53:43.358Z,13.80
2018-12-27T19:56:09.649Z,13.63
2018-12-27T19:58:36.267Z,12.73
2018-12-27T20:01:03.145Z,13.57
2018-12-27T20:03:30.004Z,14.87
2018-12-27T20:05:56.508Z,13.10
2018-12-27T20:08:23.127Z,13.17
2018-12-27T20:10:49.362Z,12.70
2018-12-27T20:13:15.966Z,11.07
2018-12-27T20:15:42.570Z,11.70
2018-12-27T20:18:08.837Z,11.67
2018-12-27T20:20:36.654Z,10.30
2018-12-27T20:23:03.285Z,11.20
2018-12-27T20:25:29.521Z,10.23
2018-12-27T20:27:55.769Z,10.20
2018-12-27T20:30:22.373Z,10.50
2018-12-27T20:32:48.986Z,10.23
2018-12-27T20:35:15.206Z,10.00
2018-12-27T20:37:41.823Z,10.27
2018-12-27T20:40:08.838Z,11.83
2018-12-27T20:42:35.453Z,12.33
2018-12-27T20:45:02.049Z,15.03
2018-12-27T20:47:28.657Z,13.87
2018-12-27T20:49:55.257Z,14.10
2018-12-27T20:52:21.510Z,14.83
2018-12-27T20:54:48.098Z,11.87
2018-12-27T20:57:14.752Z,12.33
2018-12-27T20:59:42.444Z,11.00
2018-12-27T21:02:09.029Z,11.20
2018-12-27T21:04:35.278Z,14.17
2018-12-27T21:07:01.883Z,9.57
2018-12-27T21:09:28.514Z,10.70
2018-12-27T21:11:54.950Z,9.63
2018-12-27T21:14:21.203Z,12.03
2018-12-27T21:16:47.446Z,10.80
2018-12-27T21:19:13.713Z,8.50
2018-12-27T21:21:40.302Z,11.10
2018-12-27T21:24:06.911Z,9.60
2018-12-27T21:26:33.497Z,11.00
2018-12-27T21:28:59.827Z,9.27
2018-12-27T21:31:26.355Z,8.57
2018-12-27T21:33:52.617Z,8.60
2018-12-27T21:36:18.878Z,9.93
2018-12-27T21:38:45.502Z,8.63
2018-12-27T21:41:12.106Z,9.57
2018-12-27T21:43:38.709Z,11.40
2018-12-27T21:46:04.955Z,9.77
2018-12-27T21:48:31.548Z,9.07
2018-12-27T21:50:57.801Z,7.73
2018-12-27T21:53:24.422Z,9.77
2018-12-27T21:55:51.037Z,9.87
2018-12-27T21:58:17.662Z,9.17
2018-12-27T22:00:44.272Z,8.40
2018-12-27T22:03:10.878Z,9.20
2018-12-27T22:05:37.141Z,9.60
2018-12-27T22:08:03.841Z,10.73
2018-12-27T22:10:30.119Z,11.97
2018-12-27T22:12:56.337Z,11.93
2018-12-27T22:15:22.960Z,12.20
2018-12-27T22:17:49.551Z,11.30
2018-12-27T22:20:15.807Z,10.37
2018-12-27T22:22:42.037Z,9.97
2018-12-27T22:25:08.289Z,11.47
2018-12-27T22:27:34.884Z,9.83
2018-12-27T22:30:01.523Z,11.83
2018-12-27T22:32:28.097Z,12.37
2018-12-27T22:34:54.705Z,11.17
2018-12-27T22:37:21.298Z,11.23
2018-12-27T22:39:47.597Z,10.00
2018-12-27T22:42:14.160Z,11.17
2018-12-27T22:44:40.781Z,9.43
2018-12-27T22:47:07.373Z,10.40
2018-12-27T22:49:34.007Z,10.17
2018-12-27T22:52:00.606Z,9.70
2018-12-27T22:54:27.226Z,9.27
2018-12-27T22:56:53.549Z,9.50
2018-12-27T22:59:19.838Z,8.77
2018-12-27T23:01:46.193Z,7.30
2018-12-27T23:04:12.827Z,7.83
2018-12-27T23:06:39.038Z,7.90
2018-12-27T23:09:05.721Z,7.37
2018-12-27T23:11:32.350Z,8.30
2018-12-27T23:13:58.584Z,8.30
2018-12-27T23:16:25.210Z,8.07
2018-12-27T23:18:51.435Z,7.40
2018-12-27T23:21:18.490Z,6.83
2018-12-27T23:23:45.397Z,9.77
2018-12-27T23:26:11.646Z,8.47
2018-12-27T23:28:38.233Z,7.50
2018-12-27T23:31:04.862Z,7.93
2018-12-27T23:33:31.447Z,8.00
2018-12-27T23:35:57.722Z,8.00
2018-12-27T23:38:23.951Z,7.97
2018-12-27T23:40:50.226Z,7.63
2018-12-27T23:43:16.826Z,8.30
2018-12-27T23:45:43.441Z,8.70
2018-12-27T23:48:10.025Z,7.93
2018-12-27T23:50:36.278Z,8.30
2018-12-27T23:53:02.613Z,8.30
2018-12-27T23:55:29.237Z,8.43
2018-12-27T23:57:55.553Z,9.23
